Terminal Aerodrome Forecast
Issued by NWS

Home | Current Version | Previous Version | Graphics & Text | Print | Product List | Glossary On
Versions: 1 2 3 4 5 6 7 8 9 10 11 12 13 14 15 16 17 18 19 20 21 22 23 24 25 26 27 28 29 30 31 32 33 34 35 36 37 38 39 40 41
000
FTUS43 KGRB 090520
TAFRHI
TAF
KRHI 090520Z 0906/1006 32012KT 6SM -SN BR SCT015 OVC050
      TEMPO 0906/0910 3SM -SN BKN015
     FM091000 33009KT 6SM -SN BR SCT015 OVC035
      TEMPO 0910/0914 4SM -SN BKN015
     FM091400 34011G16KT 4SM -SN BR OVC020
      TEMPO 0914/0918 2SM -SHSN OVC012=

USA.gov is the U.S. government's official web portal to all federal, state and local government web resources and services.